createdAt,value
2019-02-16T00:00:01.469Z,99.49
2019-02-16T00:01:02.081Z,99.99
2019-02-16T00:02:02.661Z,99.99
2019-02-16T00:03:03.242Z,99.99
2019-02-16T00:04:03.824Z,99.99
2019-02-16T00:05:04.405Z,99.99
2019-02-16T00:06:05.000Z,99.99
2019-02-16T00:07:05.565Z,99.99
2019-02-16T00:08:06.196Z,99.99
2019-02-16T00:09:06.826Z,99.99
2019-02-16T00:10:07.510Z,99.99
2019-02-16T00:11:08.134Z,99.99
2019-02-16T00:12:08.672Z,99.99
2019-02-16T00:13:09.254Z,99.99
2019-02-16T00:14:09.837Z,99.99
2019-02-16T00:15:10.425Z,99.99
2019-02-16T00:16:11.097Z,99.99
2019-02-16T00:17:11.675Z,99.99
2019-02-16T00:18:12.257Z,99.99
2019-02-16T00:19:12.836Z,99.99
2019-02-16T00:20:13.417Z,99.99
2019-02-16T00:21:14.000Z,99.99
2019-02-16T00:22:14.578Z,99.99
2019-02-16T00:23:15.210Z,99.99
2019-02-16T00:24:15.792Z,99.99
2019-02-16T00:25:16.372Z,99.99
2019-02-16T00:26:17.002Z,99.99
2019-02-16T00:27:17.630Z,99.99
2019-02-16T00:28:18.267Z,99.99
2019-02-16T00:29:18.892Z,99.99
2019-02-16T00:30:19.573Z,99.83
2019-02-16T00:31:20.153Z,99.35
2019-02-16T00:32:20.787Z,99.92
2019-02-16T00:33:21.368Z,99.99
2019-02-16T00:34:21.948Z,99.99
2019-02-16T00:35:22.531Z,99.99
2019-02-16T00:36:23.210Z,99.99
2019-02-16T00:37:23.792Z,99.99
2019-02-16T00:38:24.372Z,99.99
2019-02-16T00:39:24.955Z,99.99
2019-02-16T00:40:25.542Z,99.99
2019-02-16T00:41:26.120Z,99.99
2019-02-16T00:42:26.752Z,99.63
2019-02-16T00:43:27.331Z,99.30
2019-02-16T00:44:30.070Z,98.86
2019-02-16T00:45:29.635Z,97.76
2019-02-16T00:46:30.220Z,99.10
2019-02-16T00:47:30.795Z,99.30
2019-02-16T00:48:31.425Z,99.58
2019-02-16T00:49:32.006Z,99.99
2019-02-16T00:50:32.587Z,99.99
2019-02-16T00:51:33.168Z,99.99
2019-02-16T00:52:33.747Z,99.99
2019-02-16T00:53:34.377Z,99.99
2019-02-16T00:54:35.003Z,99.99
2019-02-16T00:55:35.584Z,99.97
2019-02-16T00:56:36.172Z,99.99
2019-02-16T00:57:36.751Z,99.78
2019-02-16T00:58:37.335Z,99.99
2019-02-16T00:59:37.913Z,99.49
2019-02-16T01:00:38.496Z,99.30
2019-02-16T01:01:39.076Z,99.99
2019-02-16T01:02:39.657Z,99.99
2019-02-16T01:03:40.238Z,99.87
2019-02-16T01:04:40.819Z,99.78
2019-02-16T01:05:41.400Z,99.40
2019-02-16T01:06:41.983Z,99.99
2019-02-16T01:07:42.562Z,99.30
2019-02-16T01:08:43.192Z,99.87
2019-02-16T01:09:43.821Z,99.40
2019-02-16T01:10:44.403Z,99.30
2019-02-16T01:11:44.981Z,99.99
2019-02-16T01:12:45.562Z,99.99
2019-02-16T01:13:46.145Z,99.99
2019-02-16T01:14:46.725Z,99.99
2019-02-16T01:15:47.354Z,99.99
2019-02-16T01:16:48.145Z,99.99
2019-02-16T01:17:48.692Z,99.99
2019-02-16T01:18:49.273Z,99.99
2019-02-16T01:19:49.854Z,99.99
2019-02-16T01:20:50.434Z,99.99
2019-02-16T01:21:51.015Z,99.99
2019-02-16T01:22:51.596Z,99.99
2019-02-16T01:23:52.228Z,99.99
2019-02-16T01:24:52.806Z,99.99
2019-02-16T01:25:53.385Z,99.99
2019-02-16T01:26:53.966Z,99.99
2019-02-16T01:27:54.546Z,99.99
2019-02-16T01:28:55.127Z,99.99
2019-02-16T01:29:55.707Z,99.99
2019-02-16T01:30:56.291Z,99.99
2019-02-16T01:31:56.924Z,99.99
2019-02-16T01:32:57.497Z,99.99
2019-02-16T01:33:58.132Z,99.99
2019-02-16T01:34:58.708Z,99.99
2019-02-16T01:35:59.289Z,99.99
2019-02-16T01:36:59.868Z,99.99
2019-02-16T01:38:00.447Z,99.99
2019-02-16T01:39:01.028Z,99.99
2019-02-16T01:40:01.610Z,99.82
2019-02-16T01:41:02.192Z,99.99
2019-02-16T01:42:02.771Z,99.99
2019-02-16T01:43:03.408Z,99.99
2019-02-16T01:44:03.981Z,99.99
2019-02-16T01:45:04.562Z,99.99
2019-02-16T01:46:05.191Z,99.99
2019-02-16T01:47:05.770Z,99.99
2019-02-16T01:48:06.352Z,99.99
2019-02-16T01:49:06.930Z,99.99
2019-02-16T01:50:07.515Z,99.99
2019-02-16T01:51:08.091Z,99.92
2019-02-16T01:52:08.669Z,99.99
2019-02-16T01:53:09.249Z,99.99
2019-02-16T01:54:09.877Z,99.99
2019-02-16T01:55:10.457Z,99.99
2019-02-16T01:56:11.035Z,99.99
2019-02-16T01:57:11.615Z,99.99
2019-02-16T01:58:12.194Z,99.99
2019-02-16T01:59:12.776Z,99.99
2019-02-16T02:00:13.353Z,99.99
2019-02-16T02:01:13.934Z,99.99
2019-02-16T02:02:14.513Z,99.99
2019-02-16T02:03:15.142Z,99.99
2019-02-16T02:04:15.720Z,99.99
2019-02-16T02:05:16.304Z,99.99
2019-02-16T02:06:16.933Z,99.99
2019-02-16T02:07:17.513Z,99.99
2019-02-16T02:08:18.093Z,99.99
2019-02-16T02:09:18.679Z,99.99
2019-02-16T02:10:19.304Z,99.73
2019-02-16T02:11:19.882Z,99.39
2019-02-16T02:12:20.461Z,99.58
2019-02-16T02:13:21.043Z,99.99
2019-02-16T02:14:21.623Z,99.99
2019-02-16T02:15:22.204Z,99.99
2019-02-16T02:16:22.784Z,99.99
2019-02-16T02:17:23.365Z,99.99
2019-02-16T02:18:23.944Z,99.99
2019-02-16T02:19:24.525Z,99.99
2019-02-16T02:20:25.107Z,99.99
2019-02-16T02:21:25.689Z,99.99
2019-02-16T02:22:26.317Z,99.99
2019-02-16T02:23:26.895Z,99.99
2019-02-16T02:24:27.475Z,99.99
2019-02-16T02:25:28.057Z,99.99
2019-02-16T02:26:28.637Z,99.99
2019-02-16T02:27:29.214Z,99.99
2019-02-16T02:28:29.794Z,99.99
2019-02-16T02:29:30.375Z,99.99
2019-02-16T02:30:30.956Z,99.99
2019-02-16T02:31:31.582Z,99.99
2019-02-16T02:32:32.163Z,99.99
2019-02-16T02:33:32.745Z,99.99
2019-02-16T02:34:33.424Z,99.99
2019-02-16T02:35:33.998Z,99.99
2019-02-16T02:36:34.630Z,99.99
2019-02-16T02:37:35.211Z,99.99
2019-02-16T02:38:35.837Z,99.99
2019-02-16T02:39:36.418Z,99.99
2019-02-16T02:40:37.055Z,99.99
2019-02-16T02:41:37.678Z,99.99
2019-02-16T02:42:38.326Z,99.99
2019-02-16T02:43:38.967Z,99.99
2019-02-16T02:44:39.499Z,99.99
2019-02-16T02:45:40.079Z,99.99
2019-02-16T02:46:40.658Z,99.99
2019-02-16T02:47:41.242Z,99.99
2019-02-16T02:48:41.822Z,99.99
2019-02-16T02:49:42.401Z,99.99
2019-02-16T02:50:42.980Z,99.99
2019-02-16T02:51:51.658Z,99.99
2019-02-16T02:52:45.143Z,99.99
2019-02-16T02:53:45.713Z,99.99
2019-02-16T02:54:46.289Z,99.99
2019-02-16T02:55:46.873Z,99.99
2019-02-16T02:56:47.449Z,99.99
2019-02-16T02:57:48.112Z,99.99
2019-02-16T02:58:48.662Z,99.99
2019-02-16T02:59:49.235Z,99.99
2019-02-16T03:00:49.815Z,99.99
2019-02-16T03:01:50.394Z,99.99
2019-02-16T03:02:51.002Z,99.99
2019-02-16T03:03:51.553Z,99.99
2019-02-16T03:04:52.133Z,99.99
2019-02-16T03:05:52.763Z,99.87
2019-02-16T03:06:53.340Z,99.99
2019-02-16T03:07:53.921Z,99.99
2019-02-16T03:08:54.552Z,99.99
2019-02-16T03:09:55.180Z,99.01
2019-02-16T03:10:55.761Z,99.99
2019-02-16T03:11:56.342Z,99.99
2019-02-16T03:12:56.923Z,99.99
2019-02-16T03:13:57.503Z,99.99
2019-02-16T03:14:58.084Z,99.99
2019-02-16T03:15:58.664Z,99.99
2019-02-16T03:16:59.249Z,99.99
2019-02-16T03:17:59.875Z,99.99
2019-02-16T03:19:00.504Z,99.99
2019-02-16T03:20:01.084Z,99.99
2019-02-16T03:21:01.667Z,99.99
2019-02-16T03:22:03.196Z,99.99
2019-02-16T03:23:03.818Z,99.99
2019-02-16T03:24:04.455Z,99.99
2019-02-16T03:25:05.126Z,99.99
2019-02-16T03:26:05.704Z,99.99
2019-02-16T03:27:06.282Z,99.99
2019-02-16T03:28:06.862Z,99.99
2019-02-16T03:29:07.446Z,99.99
2019-02-16T03:30:08.024Z,99.99
2019-02-16T03:31:08.599Z,99.99
2019-02-16T03:32:09.197Z,99.99
2019-02-16T03:33:09.787Z,99.99
2019-02-16T03:34:10.341Z,99.82
2019-02-16T03:35:10.914Z,99.99
2019-02-16T03:36:11.546Z,99.05
2019-02-16T03:37:12.122Z,99.99
2019-02-16T03:38:12.703Z,99.99
2019-02-16T03:39:13.280Z,99.99
2019-02-16T03:40:13.966Z,99.99
2019-02-16T03:41:14.540Z,99.73
2019-02-16T03:42:15.117Z,99.82
2019-02-16T03:43:15.694Z,99.99
2019-02-16T03:44:16.274Z,99.44
2019-02-16T03:45:16.853Z,99.53
2019-02-16T03:46:17.431Z,99.99
2019-02-16T03:47:18.060Z,99.99
2019-02-16T03:48:18.686Z,99.99
2019-02-16T03:49:19.263Z,99.99
2019-02-16T03:50:19.844Z,99.82
2019-02-16T03:51:20.427Z,99.99
2019-02-16T03:52:21.064Z,99.99
2019-02-16T03:53:21.632Z,99.99
2019-02-16T03:54:22.205Z,99.99
2019-02-16T03:55:22.830Z,99.99
2019-02-16T03:56:23.407Z,99.99
2019-02-16T03:57:23.982Z,99.99
2019-02-16T03:58:24.557Z,99.99
2019-02-16T03:59:25.130Z,99.99
2019-02-16T04:00:25.759Z,99.99
2019-02-16T04:01:26.340Z,99.99
2019-02-16T04:02:26.959Z,99.99
2019-02-16T04:03:27.537Z,99.99
2019-02-16T04:04:28.116Z,99.99
2019-02-16T04:05:28.688Z,99.99
2019-02-16T04:06:29.273Z,99.99
2019-02-16T04:07:29.894Z,99.99
2019-02-16T04:08:30.469Z,99.99
2019-02-16T04:09:31.042Z,99.99
2019-02-16T04:10:31.658Z,99.99
2019-02-16T04:11:32.231Z,99.99
2019-02-16T04:12:32.803Z,99.99
2019-02-16T04:13:33.377Z,99.99
2019-02-16T04:14:33.998Z,99.99
2019-02-16T04:15:34.623Z,99.99
2019-02-16T04:16:35.197Z,99.99
2019-02-16T04:17:35.769Z,99.99
2019-02-16T04:18:36.344Z,99.99
2019-02-16T04:19:36.924Z,99.99
2019-02-16T04:20:37.534Z,99.99
2019-02-16T04:21:38.112Z,99.99
2019-02-16T04:22:38.724Z,99.99
2019-02-16T04:23:39.292Z,99.99
2019-02-16T04:24:39.865Z,99.99
2019-02-16T04:25:40.441Z,99.99
2019-02-16T04:26:41.013Z,99.99
2019-02-16T04:27:41.589Z,99.99
2019-02-16T04:28:42.160Z,99.99
2019-02-16T04:29:42.736Z,99.99
2019-02-16T04:30:43.308Z,99.99
2019-02-16T04:31:43.884Z,99.99
2019-02-16T04:32:44.457Z,99.99
2019-02-16T04:33:45.032Z,99.99
2019-02-16T04:34:45.605Z,99.99
2019-02-16T04:35:46.178Z,99.99
2019-02-16T04:36:46.751Z,99.99
2019-02-16T04:37:47.326Z,99.99
2019-02-16T04:38:48.093Z,99.99
2019-02-16T04:39:48.643Z,99.99
2019-02-16T04:40:49.216Z,99.99
2019-02-16T04:41:49.787Z,99.99
2019-02-16T04:42:50.362Z,99.99
2019-02-16T04:43:50.936Z,99.99
2019-02-16T04:44:51.510Z,99.99
2019-02-16T04:45:52.135Z,99.99
2019-02-16T04:46:52.713Z,99.99
2019-02-16T04:47:53.283Z,99.99
2019-02-16T04:48:53.860Z,99.99
2019-02-16T04:49:54.432Z,99.99
2019-02-16T04:50:55.056Z,99.99
2019-02-16T04:51:55.684Z,99.99
2019-02-16T04:52:56.257Z,99.99
2019-02-16T04:53:56.840Z,99.99
2019-02-16T04:54:57.409Z,99.99
2019-02-16T04:55:58.028Z,99.99
2019-02-16T04:56:58.600Z,99.99
2019-02-16T04:57:59.173Z,99.99
2019-02-16T04:58:59.749Z,99.99
2019-02-16T05:00:00.456Z,99.99
2019-02-16T05:01:01.038Z,99.99
2019-02-16T05:02:01.563Z,99.99
2019-02-16T05:03:02.139Z,99.99
2019-02-16T05:04:02.711Z,99.99
2019-02-16T05:05:03.290Z,99.99
2019-02-16T05:06:03.862Z,99.99
2019-02-16T05:07:04.488Z,99.99
2019-02-16T05:08:05.062Z,99.99
2019-02-16T05:09:05.632Z,99.99
2019-02-16T05:10:06.258Z,99.99
2019-02-16T05:11:06.780Z,99.99
2019-02-16T05:12:07.404Z,99.99
2019-02-16T05:13:07.978Z,99.99
2019-02-16T05:14:08.553Z,99.99
2019-02-16T05:15:09.179Z,99.91
2019-02-16T05:16:09.749Z,99.99
2019-02-16T05:17:10.322Z,99.99
2019-02-16T05:18:10.895Z,99.99
2019-02-16T05:19:11.467Z,99.99
2019-02-16T05:20:12.041Z,99.99
2019-02-16T05:21:12.614Z,99.99
2019-02-16T05:22:13.186Z,99.99
2019-02-16T05:23:13.762Z,99.99
2019-02-16T05:24:14.333Z,99.99
2019-02-16T05:25:14.909Z,99.99
2019-02-16T05:26:15.478Z,99.99
2019-02-16T05:27:16.100Z,99.99
2019-02-16T05:28:16.672Z,99.99
2019-02-16T05:29:17.245Z,99.99
2019-02-16T05:30:17.823Z,99.99
2019-02-16T05:31:18.434Z,99.99
2019-02-16T05:32:19.006Z,99.99
2019-02-16T05:33:19.579Z,99.99
2019-02-16T05:34:20.199Z,99.99
2019-02-16T05:35:20.773Z,99.99
2019-02-16T05:36:21.346Z,99.99
2019-02-16T05:37:21.924Z,99.99
2019-02-16T05:38:22.537Z,99.99
2019-02-16T05:39:23.122Z,99.99
2019-02-16T05:40:23.693Z,99.99
2019-02-16T05:41:24.269Z,99.99
2019-02-16T05:42:24.839Z,99.99
2019-02-16T05:43:25.415Z,99.99
2019-02-16T05:44:26.082Z,99.99
2019-02-16T05:45:26.655Z,99.99
2019-02-16T05:46:27.227Z,99.99
2019-02-16T05:47:27.802Z,99.99
2019-02-16T05:48:28.376Z,99.99
2019-02-16T05:49:28.950Z,99.99
2019-02-16T05:50:29.524Z,99.99
2019-02-16T05:51:30.148Z,99.99
2019-02-16T05:52:30.722Z,99.99
2019-02-16T05:53:31.296Z,99.99
2019-02-16T05:54:31.871Z,99.99
2019-02-16T05:55:32.445Z,99.99
2019-02-16T05:56:33.017Z,99.99
2019-02-16T05:57:33.591Z,99.99
2019-02-16T05:58:34.164Z,99.99
2019-02-16T05:59:34.742Z,99.99
2019-02-16T06:00:35.311Z,99.99
2019-02-16T06:01:35.935Z,99.99
2019-02-16T06:02:36.459Z,99.99
2019-02-16T06:03:37.033Z,99.99
2019-02-16T06:04:37.608Z,99.99
2019-02-16T06:05:38.180Z,99.99
2019-02-16T06:06:38.802Z,99.99
2019-02-16T06:07:39.467Z,99.19
2019-02-16T06:08:40.040Z,99.39
2019-02-16T06:09:40.612Z,99.99
2019-02-16T06:10:41.185Z,99.99
2019-02-16T06:11:41.756Z,99.99
2019-02-16T06:12:42.329Z,99.99
2019-02-16T06:13:42.903Z,99.99
2019-02-16T06:14:43.474Z,99.99
2019-02-16T06:15:44.051Z,99.99
2019-02-16T06:16:44.622Z,99.99
2019-02-16T06:17:45.194Z,99.99
2019-02-16T06:18:45.768Z,99.99
2019-02-16T06:19:46.344Z,99.99
2019-02-16T06:20:46.965Z,99.99
2019-02-16T06:21:47.540Z,99.99
2019-02-16T06:22:48.177Z,99.99
2019-02-16T06:23:48.733Z,99.99
2019-02-16T06:24:49.306Z,99.99
2019-02-16T06:25:49.929Z,99.99
2019-02-16T06:26:50.503Z,99.99
2019-02-16T06:27:51.076Z,99.99
2019-02-16T06:28:51.651Z,99.99
2019-02-16T06:29:52.223Z,99.99
2019-02-16T06:30:52.947Z,99.99
2019-02-16T06:31:53.572Z,99.99
2019-02-16T06:32:54.144Z,99.99
2019-02-16T06:33:54.768Z,99.99
2019-02-16T06:34:55.346Z,99.99
2019-02-16T06:35:55.916Z,99.99
2019-02-16T06:36:56.489Z,99.99
2019-02-16T06:37:57.063Z,98.72
2019-02-16T06:38:57.638Z,98.33
2019-02-16T06:39:58.210Z,98.33
2019-02-16T06:40:58.783Z,99.48
2019-02-16T06:41:59.368Z,99.19
2019-02-16T06:42:59.931Z,99.39
2019-02-16T06:44:00.551Z,99.99
2019-02-16T06:45:01.124Z,99.29
2019-02-16T06:46:01.697Z,99.58
2019-02-16T06:47:02.271Z,99.99
2019-02-16T06:48:02.850Z,99.43
2019-02-16T06:49:03.422Z,99.10
2019-02-16T06:50:03.993Z,99.10
2019-02-16T06:51:04.565Z,99.29
2019-02-16T06:52:05.189Z,99.43
2019-02-16T06:53:12.841Z,99.96
2019-02-16T06:54:07.328Z,99.99
2019-02-16T06:55:07.901Z,99.58
2019-02-16T06:56:08.488Z,99.99
2019-02-16T06:57:09.097Z,99.99
2019-02-16T06:58:09.670Z,99.58
2019-02-16T06:59:10.243Z,98.96
2019-02-16T07:00:10.816Z,99.05
2019-02-16T07:01:11.391Z,99.05
2019-02-16T07:02:11.963Z,99.63
2019-02-16T07:03:12.537Z,99.24
2019-02-16T07:04:13.110Z,99.72
2019-02-16T07:05:13.693Z,99.99
2019-02-16T07:06:14.256Z,99.99
2019-02-16T07:07:14.828Z,99.72
2019-02-16T07:08:15.451Z,99.99
2019-02-16T07:09:16.023Z,99.34
2019-02-16T07:10:16.594Z,99.99
2019-02-16T07:11:17.218Z,99.24
2019-02-16T07:12:17.832Z,99.99
2019-02-16T07:13:18.405Z,99.99
2019-02-16T07:14:18.978Z,99.99
2019-02-16T07:15:19.551Z,99.99
2019-02-16T07:16:20.124Z,99.99
2019-02-16T07:17:20.699Z,99.99
2019-02-16T07:18:21.272Z,99.99
2019-02-16T07:19:21.847Z,99.99
2019-02-16T07:20:22.419Z,99.99
2019-02-16T07:21:22.991Z,99.63
2019-02-16T07:22:23.565Z,99.99
2019-02-16T07:23:24.137Z,99.99
2019-02-16T07:24:24.711Z,99.99
2019-02-16T07:25:25.288Z,99.43
2019-02-16T07:26:25.854Z,99.99
2019-02-16T07:27:26.476Z,99.99
2019-02-16T07:28:27.051Z,99.91
2019-02-16T07:29:27.624Z,98.57
2019-02-16T07:30:28.197Z,99.24
2019-02-16T07:31:28.821Z,98.96
2019-02-16T07:32:29.443Z,98.67
2019-02-16T07:33:30.016Z,98.96
2019-02-16T07:34:30.590Z,99.82
2019-02-16T07:35:31.208Z,99.53
2019-02-16T07:36:31.779Z,99.91
2019-02-16T07:37:32.357Z,99.05
2019-02-16T07:38:32.971Z,99.53
2019-02-16T07:39:33.544Z,99.34
2019-02-16T07:40:34.118Z,99.43
2019-02-16T07:41:34.690Z,98.96
2019-02-16T07:42:35.261Z,98.76
2019-02-16T07:43:35.843Z,99.72
2019-02-16T07:44:36.402Z,99.24
2019-02-16T07:45:36.978Z,99.15
2019-02-16T07:46:37.547Z,99.34
2019-02-16T07:47:38.126Z,99.82
2019-02-16T07:48:38.737Z,98.96
2019-02-16T07:49:39.310Z,98.47
2019-02-16T07:50:39.880Z,99.24
2019-02-16T07:51:40.495Z,98.38
2019-02-16T07:52:41.071Z,99.72
2019-02-16T07:53:41.639Z,99.15
2019-02-16T07:54:42.212Z,99.91
2019-02-16T07:55:42.785Z,99.43
2019-02-16T07:56:43.407Z,99.15
2019-02-16T07:57:43.977Z,98.96
2019-02-16T07:58:44.550Z,98.47
2019-02-16T07:59:45.121Z,98.10
2019-02-16T08:00:45.692Z,99.99
2019-02-16T08:01:46.264Z,99.99
2019-02-16T08:02:46.836Z,99.99
2019-02-16T08:03:47.409Z,99.72
2019-02-16T08:04:47.982Z,99.99
2019-02-16T08:05:48.558Z,99.99
2019-02-16T08:06:49.179Z,99.99
2019-02-16T08:07:49.748Z,99.99
2019-02-16T08:08:50.323Z,99.99
2019-02-16T08:09:50.933Z,99.99
2019-02-16T08:10:51.505Z,99.99
2019-02-16T08:11:52.078Z,99.99
2019-02-16T08:12:52.650Z,99.99
2019-02-16T08:13:53.220Z,99.99
2019-02-16T08:14:53.792Z,99.99
2019-02-16T08:15:54.364Z,99.99
2019-02-16T08:16:54.988Z,99.99
2019-02-16T08:17:55.561Z,99.99
2019-02-16T08:18:56.135Z,99.99
2019-02-16T08:19:56.708Z,99.99
2019-02-16T08:20:57.328Z,99.99
2019-02-16T08:21:57.901Z,99.99
2019-02-16T08:22:58.473Z,99.99
2019-02-16T08:23:59.086Z,99.99
2019-02-16T08:24:59.662Z,99.99
2019-02-16T08:26:00.236Z,99.99
2019-02-16T08:27:00.860Z,99.99
2019-02-16T08:28:01.433Z,99.99
2019-02-16T08:29:02.006Z,99.99
2019-02-16T08:30:02.579Z,99.99
2019-02-16T08:31:03.149Z,99.99
2019-02-16T08:32:03.721Z,99.99
2019-02-16T08:33:04.296Z,99.99
2019-02-16T08:34:04.866Z,99.99
2019-02-16T08:35:05.488Z,99.99
2019-02-16T08:36:06.061Z,99.99
2019-02-16T08:37:06.684Z,99.99
2019-02-16T08:38:07.362Z,99.99
2019-02-16T08:39:07.940Z,99.99
2019-02-16T08:40:08.519Z,99.99
2019-02-16T08:41:09.091Z,99.43
2019-02-16T08:42:09.668Z,99.34
2019-02-16T08:43:10.245Z,99.91
2019-02-16T08:44:10.823Z,99.99
2019-02-16T08:45:11.399Z,99.99
2019-02-16T08:46:11.975Z,99.99
2019-02-16T08:47:12.550Z,99.99
2019-02-16T08:48:13.178Z,99.99
2019-02-16T08:49:13.755Z,99.99
2019-02-16T08:50:14.331Z,99.99
2019-02-16T08:51:14.917Z,99.99
2019-02-16T08:52:15.490Z,99.99
2019-02-16T08:53:16.066Z,99.99
2019-02-16T08:54:16.644Z,99.99
2019-02-16T08:55:17.223Z,99.99
2019-02-16T08:56:17.851Z,99.99
2019-02-16T08:57:18.427Z,99.99
2019-02-16T08:58:19.006Z,99.99
2019-02-16T08:59:19.588Z,99.99
2019-02-16T09:00:20.164Z,99.99
2019-02-16T09:01:20.741Z,99.99
2019-02-16T09:02:21.320Z,99.99
2019-02-16T09:03:21.897Z,99.99
2019-02-16T09:04:22.525Z,99.99
2019-02-16T09:05:23.153Z,99.99
2019-02-16T09:06:23.728Z,99.99
2019-02-16T09:07:24.306Z,99.99
2019-02-16T09:08:24.888Z,99.99
2019-02-16T09:09:25.462Z,99.99
2019-02-16T09:10:26.192Z,99.99
2019-02-16T09:11:26.817Z,99.99
2019-02-16T09:12:27.394Z,99.99
2019-02-16T09:13:27.972Z,99.99
2019-02-16T09:14:28.550Z,99.99
2019-02-16T09:15:29.127Z,99.99
2019-02-16T09:16:29.706Z,99.99
2019-02-16T09:17:30.282Z,99.99
2019-02-16T09:18:30.858Z,99.99
2019-02-16T09:19:31.437Z,99.99
2019-02-16T09:20:32.012Z,99.99
2019-02-16T09:21:32.591Z,99.99
2019-02-16T09:22:33.169Z,99.99
2019-02-16T09:23:33.749Z,99.99
2019-02-16T09:24:34.326Z,99.99
2019-02-16T09:25:34.902Z,99.99
2019-02-16T09:26:35.480Z,99.99
2019-02-16T09:27:36.110Z,99.99
2019-02-16T09:28:36.686Z,99.99
2019-02-16T09:29:37.263Z,99.99
2019-02-16T09:30:37.891Z,99.99
2019-02-16T09:31:38.467Z,99.99
2019-02-16T09:32:39.044Z,99.99
2019-02-16T09:33:39.626Z,99.99
2019-02-16T09:34:40.196Z,99.99
2019-02-16T09:35:40.775Z,99.99
2019-02-16T09:36:41.352Z,99.99
2019-02-16T09:37:41.929Z,99.99
2019-02-16T09:38:42.555Z,99.99
2019-02-16T09:39:43.132Z,99.99
2019-02-16T09:40:43.710Z,99.99
2019-02-16T09:41:44.288Z,99.99
2019-02-16T09:42:44.864Z,99.99
2019-02-16T09:43:45.450Z,99.99
2019-02-16T09:44:46.021Z,99.99
2019-02-16T09:45:46.598Z,99.99
2019-02-16T09:46:47.172Z,99.99
2019-02-16T09:47:47.752Z,99.99
2019-02-16T09:48:48.329Z,99.99
2019-02-16T09:49:48.954Z,99.99
2019-02-16T09:50:49.532Z,99.99
2019-02-16T09:51:50.110Z,99.99
2019-02-16T09:52:50.886Z,99.99
2019-02-16T09:53:51.464Z,99.99
2019-02-16T09:54:52.090Z,99.99
2019-02-16T09:55:52.670Z,99.99
2019-02-16T09:56:53.247Z,99.99
2019-02-16T09:57:53.826Z,99.99
2019-02-16T09:58:54.404Z,99.99
2019-02-16T09:59:55.033Z,99.99
2019-02-16T10:00:55.610Z,99.99
2019-02-16T10:01:56.233Z,99.99
2019-02-16T10:02:56.812Z,99.99
2019-02-16T10:03:57.393Z,99.99
2019-02-16T10:04:57.974Z,99.99
2019-02-16T10:05:58.598Z,99.99
2019-02-16T10:06:59.174Z,99.99
2019-02-16T10:07:59.754Z,99.99
2019-02-16T10:09:00.331Z,99.99
2019-02-16T10:10:00.912Z,99.99
2019-02-16T10:11:01.687Z,99.99
2019-02-16T10:12:02.266Z,99.99
2019-02-16T10:13:02.842Z,99.99
2019-02-16T10:14:03.421Z,99.99
2019-02-16T10:15:04.091Z,99.99
2019-02-16T10:16:04.666Z,99.99
2019-02-16T10:17:05.242Z,99.99
2019-02-16T10:18:05.821Z,99.99
2019-02-16T10:19:06.448Z,99.99
2019-02-16T10:20:07.034Z,99.99
2019-02-16T10:21:07.603Z,99.99
2019-02-16T10:22:08.181Z,99.99
2019-02-16T10:23:08.758Z,99.99
2019-02-16T10:24:17.570Z,99.99
2019-02-16T10:25:10.195Z,99.99
2019-02-16T10:26:10.827Z,99.99
2019-02-16T10:27:11.401Z,99.99
2019-02-16T10:28:11.979Z,99.99
2019-02-16T10:29:12.556Z,99.99
2019-02-16T10:30:13.195Z,99.99
2019-02-16T10:31:13.779Z,99.99
2019-02-16T10:32:14.358Z,99.99
2019-02-16T10:33:14.939Z,99.99
2019-02-16T10:34:15.519Z,99.99
2019-02-16T10:35:16.147Z,99.99
2019-02-16T10:36:16.725Z,99.99
2019-02-16T10:37:17.304Z,99.99
2019-02-16T10:38:17.887Z,99.99
2019-02-16T10:39:18.463Z,99.99
2019-02-16T10:40:19.042Z,99.99
2019-02-16T10:41:19.617Z,99.99
2019-02-16T10:42:20.398Z,99.99
2019-02-16T10:43:20.982Z,99.99
2019-02-16T10:44:21.602Z,99.99
2019-02-16T10:45:22.182Z,99.99
2019-02-16T10:46:22.762Z,99.99
2019-02-16T10:47:23.339Z,99.99
2019-02-16T10:48:23.970Z,99.99
2019-02-16T10:49:24.547Z,99.99
2019-02-16T10:50:25.176Z,99.99
2019-02-16T10:51:25.762Z,99.99
2019-02-16T10:52:26.377Z,99.99
2019-02-16T10:53:26.955Z,99.99
2019-02-16T10:54:29.676Z,99.99
2019-02-16T10:55:29.108Z,99.99
2019-02-16T10:56:29.690Z,99.99
2019-02-16T10:57:30.268Z,99.97
2019-02-16T10:58:30.855Z,99.58
2019-02-16T10:59:31.430Z,98.82
2019-02-16T11:00:32.061Z,98.34
2019-02-16T11:01:32.641Z,99.54
2019-02-16T11:02:33.222Z,98.53
2019-02-16T11:03:33.801Z,98.68
2019-02-16T11:04:38.352Z,96.51
2019-02-16T11:05:35.959Z,95.89
2019-02-16T11:06:36.586Z,95.60
2019-02-16T11:07:37.217Z,94.35
2019-02-16T11:08:37.798Z,89.36
2019-02-16T11:09:38.379Z,88.20
2019-02-16T11:10:38.961Z,87.72
2019-02-16T11:11:39.563Z,87.92
2019-02-16T11:12:40.124Z,88.01
2019-02-16T11:13:40.705Z,89.26
2019-02-16T11:14:41.283Z,88.20
2019-02-16T11:15:41.906Z,89.93
2019-02-16T11:16:42.486Z,90.03
2019-02-16T11:17:43.069Z,91.28
2019-02-16T11:18:43.650Z,91.56
2019-02-16T11:19:44.282Z,91.66
2019-02-16T11:20:44.863Z,93.29
2019-02-16T11:21:45.444Z,93.01
2019-02-16T11:22:46.057Z,94.54
2019-02-16T11:23:46.659Z,93.29
2019-02-16T11:24:47.241Z,92.81
2019-02-16T11:25:47.822Z,91.66
2019-02-16T11:26:48.407Z,92.72
2019-02-16T11:27:49.034Z,94.49
2019-02-16T11:28:49.614Z,94.45
2019-02-16T11:29:50.195Z,93.25
2019-02-16T11:30:50.776Z,91.71
2019-02-16T11:31:51.365Z,90.08
2019-02-16T11:32:51.985Z,90.84
2019-02-16T11:33:52.567Z,91.61
2019-02-16T11:34:53.142Z,91.81
2019-02-16T11:35:53.722Z,91.23
2019-02-16T11:36:54.303Z,90.84
2019-02-16T11:37:54.884Z,92.00
2019-02-16T11:38:55.466Z,93.82
2019-02-16T11:39:56.044Z,94.98
2019-02-16T11:40:56.675Z,96.80
2019-02-16T11:41:57.308Z,98.34
2019-02-16T11:42:57.894Z,98.63
2019-02-16T11:43:58.470Z,99.20
2019-02-16T11:44:59.050Z,98.82
2019-02-16T11:45:59.829Z,99.10
2019-02-16T11:47:00.413Z,99.68
2019-02-16T11:48:00.991Z,99.68
2019-02-16T11:49:01.569Z,99.30
2019-02-16T11:50:02.146Z,99.87
2019-02-16T11:51:02.738Z,99.49
2019-02-16T11:52:03.353Z,99.78
2019-02-16T11:53:03.933Z,99.20
2019-02-16T11:54:04.521Z,99.68
2019-02-16T11:55:05.099Z,99.49
2019-02-16T11:56:05.677Z,99.97
2019-02-16T11:57:06.258Z,99.87
2019-02-16T11:58:06.835Z,98.14
2019-02-16T11:59:07.465Z,96.51
2019-02-16T12:00:08.044Z,97.96
2019-02-16T12:01:08.624Z,98.48
2019-02-16T12:02:09.206Z,99.30
2019-02-16T12:03:09.867Z,95.94
2019-02-16T12:04:10.415Z,94.31
2019-02-16T12:05:10.997Z,95.36
2019-02-16T12:06:11.576Z,96.70
2019-02-16T12:07:12.158Z,97.86
2019-02-16T12:08:12.780Z,98.63
2019-02-16T12:09:13.451Z,99.54
2019-02-16T12:10:14.031Z,99.87
2019-02-16T12:11:14.609Z,99.58
2019-02-16T12:12:15.186Z,99.54
2019-02-16T12:13:15.770Z,99.78
2019-02-16T12:14:17.847Z,99.58
2019-02-16T12:15:17.925Z,99.58
2019-02-16T12:16:18.562Z,99.30
2019-02-16T12:17:19.125Z,99.20
2019-02-16T12:18:19.754Z,98.10
2019-02-16T12:19:20.385Z,96.94
2019-02-16T12:20:20.971Z,92.86
2019-02-16T12:21:21.546Z,95.40
2019-02-16T12:22:22.126Z,97.91
2019-02-16T12:23:22.705Z,98.68
2019-02-16T12:24:23.291Z,99.83
2019-02-16T12:25:23.866Z,99.35
2019-02-16T12:26:24.446Z,99.06
2019-02-16T12:27:25.027Z,95.89
2019-02-16T12:28:25.608Z,96.08
2019-02-16T12:29:26.189Z,97.81
2019-02-16T12:30:31.868Z,99.06
2019-02-16T12:31:32.499Z,99.83
2019-02-16T12:32:33.129Z,99.99
2019-02-16T12:33:38.766Z,99.99
2019-02-16T12:34:39.387Z,99.99
2019-02-16T12:35:39.964Z,99.99
2019-02-16T12:36:40.545Z,99.99
2019-02-16T12:37:41.215Z,99.99
2019-02-16T12:38:41.795Z,99.99
2019-02-16T12:39:42.424Z,99.99
2019-02-16T12:40:42.949Z,99.99
2019-02-16T12:41:43.528Z,98.96
2019-02-16T12:42:44.110Z,98.77
2019-02-16T12:43:44.692Z,99.54
2019-02-16T12:44:45.268Z,99.63
2019-02-16T12:45:51.283Z,99.73
2019-02-16T12:46:47.472Z,99.73
2019-02-16T12:47:48.096Z,99.73
2019-02-16T12:48:48.676Z,99.83
2019-02-16T12:49:49.256Z,99.99
2019-02-16T12:50:49.837Z,99.99
2019-02-16T12:51:50.473Z,99.83
2019-02-16T12:52:51.051Z,99.63
2019-02-16T12:53:51.637Z,99.63
2019-02-16T12:54:52.214Z,99.35
2019-02-16T12:55:52.794Z,98.68
2019-02-16T12:56:53.376Z,98.77
2019-02-16T12:57:53.958Z,98.68
2019-02-16T12:58:54.539Z,98.68
2019-02-16T12:59:55.122Z,98.77